sensor_id;sensor_type;location;lat;lon;timestamp;pressure;altitude;pressure_sealevel;temperature;humidity
56514;BME280;62152;52.078;8.414;2023-04-01T00:01:53;97952.81;;;18.62;54.58
56514;BME280;62152;52.078;8.414;2023-04-01T00:05:54;97954.03;;;18.61;54.42
56514;BME280;62152;52.078;8.414;2023-04-01T00:09:56;97934.81;;;18.61;54.59
56514;BME280;62152;52.078;8.414;2023-04-01T00:13:56;97943.03;;;18.61;54.44
56514;BME280;62152;52.078;8.414;2023-04-01T00:17:56;97948.53;;;18.61;54.53
56514;BME280;62152;52.078;8.414;2023-04-01T00:21:57;97951.69;;;18.59;54.54
56514;BME280;62152;52.078;8.414;2023-04-01T00:26:00;97948.94;;;18.59;54.54
56514;BME280;62152;52.078;8.414;2023-04-01T00:30:00;97942.66;;;18.59;54.58
56514;BME280;62152;52.078;8.414;2023-04-01T00:34:01;97939.91;;;18.59;54.33
56514;BME280;62152;52.078;8.414;2023-04-01T00:38:01;97949.72;;;18.60;54.53
56514;BME280;62152;52.078;8.414;2023-04-01T00:42:03;97942.66;;;18.59;54.30
56514;BME280;62152;52.078;8.414;2023-04-01T00:46:04;97944.63;;;18.58;54.33
56514;BME280;62152;52.078;8.414;2023-04-01T00:50:05;97938.38;;;18.58;54.26
56514;BME280;62152;52.078;8.414;2023-04-01T00:54:06;97947.38;;;18.58;54.19
56514;BME280;62152;52.078;8.414;2023-04-01T00:58:11;97939.91;;;18.59;54.16
56514;BME280;62152;52.078;8.414;2023-04-01T01:02:13;97939.59;;;18.57;54.52
56514;BME280;62152;52.078;8.414;2023-04-01T01:06:18;97936.41;;;18.58;54.33
56514;BME280;62152;52.078;8.414;2023-04-01T01:10:28;97935.63;;;18.58;54.25
56514;BME280;62152;52.078;8.414;2023-04-01T01:14:36;97936.41;;;18.58;54.21
56514;BME280;62152;52.078;8.414;2023-04-01T01:18:46;97940.34;;;18.57;54.18
56514;BME280;62152;52.078;8.414;2023-04-01T01:22:57;97936.84;;;18.57;54.29
56514;BME280;62152;52.078;8.414;2023-04-01T01:27:14;97927.06;;;18.56;54.16
56514;BME280;62152;52.078;8.414;2023-04-01T01:31:19;97924.66;;;18.58;54.26
56514;BME280;62152;52.078;8.414;2023-04-01T01:35:24;97928.59;;;18.57;54.12
56514;BME280;62152;52.078;8.414;2023-04-01T01:39:27;97934.09;;;18.57;54.44
56514;BME280;62152;52.078;8.414;2023-04-01T01:43:31;97934.84;;;18.57;54.27
56514;BME280;62152;52.078;8.414;2023-04-01T01:47:35;97929.81;;;18.56;54.27
56514;BME280;62152;52.078;8.414;2023-04-01T01:51:39;97922.34;;;18.56;54.29
56514;BME280;62152;52.078;8.414;2023-04-01T01:55:43;97927.06;;;18.56;54.25
56514;BME280;62152;52.078;8.414;2023-04-01T01:59:43;97925.50;;;18.55;54.34
56514;BME280;62152;52.078;8.414;2023-04-01T02:03:53;97918.81;;;18.56;54.34
56514;BME280;62152;52.078;8.414;2023-04-01T02:07:57;97924.31;;;18.56;54.22
56514;BME280;62152;52.078;8.414;2023-04-01T02:12:01;97923.97;;;18.54;54.31
56514;BME280;62152;52.078;8.414;2023-04-01T02:16:11;97923.53;;;18.55;54.32
56514;BME280;62152;52.078;8.414;2023-04-01T02:20:15;97924.75;;;18.54;54.07
56514;BME280;62152;52.078;8.414;2023-04-01T02:24:18;97920.03;;;18.55;54.25
56514;BME280;62152;52.078;8.414;2023-04-01T02:28:20;97926.72;;;18.54;54.31
56514;BME280;62152;52.078;8.414;2023-04-01T02:32:22;97918.47;;;18.54;54.38
56514;BME280;62152;52.078;8.414;2023-04-01T02:36:23;97919.25;;;18.54;54.20
56514;BME280;62152;52.078;8.414;2023-04-01T02:40:25;97918.47;;;18.54;54.09
56514;BME280;62152;52.078;8.414;2023-04-01T02:44:25;97920.44;;;18.53;54.14
56514;BME280;62152;52.078;8.414;2023-04-01T02:48:26;97919.25;;;18.54;54.10
56514;BME280;62152;52.078;8.414;2023-04-01T02:52:27;97928.69;;;18.53;54.19
56514;BME280;62152;52.078;8.414;2023-04-01T02:56:29;97925.94;;;18.53;54.31
56514;BME280;62152;52.078;8.414;2023-04-01T03:00:30;97929.47;;;18.54;54.34
56514;BME280;62152;52.078;8.414;2023-04-01T03:04:30;97929.47;;;18.54;54.27
56514;BME280;62152;52.078;8.414;2023-04-01T03:08:30;97930.66;;;18.53;54.17
56514;BME280;62152;52.078;8.414;2023-04-01T03:12:32;97926.34;;;18.52;54.37
56514;BME280;62152;52.078;8.414;2023-04-01T03:16:33;97931.44;;;18.53;54.08
56514;BME280;62152;52.078;8.414;2023-04-01T03:20:34;97925.16;;;18.53;53.91
56514;BME280;62152;52.078;8.414;2023-04-01T03:24:35;97932.59;;;18.52;53.97
56514;BME280;62152;52.078;8.414;2023-04-01T03:28:36;97925.94;;;18.53;54.22
56514;BME280;62152;52.078;8.414;2023-04-01T03:32:37;97933.41;;;18.53;54.08
56514;BME280;62152;52.078;8.414;2023-04-01T03:36:37;97932.59;;;18.52;54.29
56514;BME280;62152;52.078;8.414;2023-04-01T03:40:41;97931.84;;;18.52;54.09
56514;BME280;62152;52.078;8.414;2023-04-01T03:44:43;97933.81;;;18.51;53.90
56514;BME280;62152;52.078;8.414;2023-04-01T03:48:45;97940.06;;;18.52;53.90
56514;BME280;62152;52.078;8.414;2023-04-01T03:52:45;97942.81;;;18.52;54.26
56514;BME280;62152;52.078;8.414;2023-04-01T03:56:45;97936.56;;;18.51;54.05
56514;BME280;62152;52.078;8.414;2023-04-01T04:00:47;97941.28;;;18.51;54.32
56514;BME280;62152;52.078;8.414;2023-04-01T04:04:48;97937.31;;;18.52;54.29
56514;BME280;62152;52.078;8.414;2023-04-01T04:08:49;97935.78;;;18.51;53.98
56514;BME280;62152;52.078;8.414;2023-04-01T04:12:49;97942.03;;;18.51;53.85
56514;BME280;62152;52.078;8.414;2023-04-01T04:16:52;97945.22;;;18.50;54.26
56514;BME280;62152;52.078;8.414;2023-04-01T04:20:52;97940.50;;;18.50;54.05
56514;BME280;62152;52.078;8.414;2023-04-01T04:24:53;97946.00;;;18.50;54.19
56514;BME280;62152;52.078;8.414;2023-04-01T04:28:54;97935.78;;;18.51;54.29
56514;BME280;62152;52.078;8.414;2023-04-01T04:32:56;97942.47;;;18.50;53.88
56514;BME280;62152;52.078;8.414;2023-04-01T04:36:57;97944.00;;;18.51;54.29
56514;BME280;62152;52.078;8.414;2023-04-01T04:41:02;97941.28;;;18.51;54.23
56514;BME280;62152;52.078;8.414;2023-04-01T04:45:03;97946.00;;;18.50;54.03
56514;BME280;62152;52.078;8.414;2023-04-01T04:49:05;97946.75;;;18.51;54.15
56514;BME280;62152;52.078;8.414;2023-04-01T04:53:08;97950.69;;;18.50;54.19
56514;BME280;62152;52.078;8.414;2023-04-01T04:57:09;97956.19;;;18.50;54.25
56514;BME280;62152;52.078;8.414;2023-04-01T05:01:17;97959.72;;;18.50;54.14
56514;BME280;62152;52.078;8.414;2023-04-01T05:05:19;97958.94;;;18.50;54.14
56514;BME280;62152;52.078;8.414;2023-04-01T05:09:20;97967.16;;;18.50;54.23
56514;BME280;62152;52.078;8.414;2023-04-01T05:13:20;97979.69;;;18.51;54.15
56514;BME280;62152;52.078;8.414;2023-04-01T05:17:21;97965.63;;;18.49;53.94
56514;BME280;62152;52.078;8.414;2023-04-01T05:21:23;97956.53;;;18.52;54.26
56514;BME280;62152;52.078;8.414;2023-04-01T05:25:24;97967.75;;;18.61;54.44
56514;BME280;62152;52.078;8.414;2023-04-01T05:29:26;97968.84;;;18.67;54.79
56514;BME280;62152;52.078;8.414;2023-04-01T05:33:34;97975.00;;;18.71;55.28
56514;BME280;62152;52.078;8.414;2023-04-01T05:37:36;97975.00;;;18.71;55.15
56514;BME280;62152;52.078;8.414;2023-04-01T05:41:38;97975.78;;;18.72;55.60
56514;BME280;62152;52.078;8.414;2023-04-01T05:45:39;97972.13;;;18.78;55.47
56514;BME280;62152;52.078;8.414;2023-04-01T05:49:48;97971.50;;;18.71;55.46
56514;BME280;62152;52.078;8.414;2023-04-01T05:53:50;97977.41;;;18.69;55.25
56514;BME280;62152;52.078;8.414;2023-04-01T05:57:51;97974.31;;;18.67;55.45
56514;BME280;62152;52.078;8.414;2023-04-01T06:01:51;97979.81;;;18.67;55.34
56514;BME280;62152;52.078;8.414;2023-04-01T06:05:53;97975.50;;;18.66;55.25
56514;BME280;62152;52.078;8.414;2023-04-01T06:09:55;97977.06;;;18.67;55.00
56514;BME280;62152;52.078;8.414;2023-04-01T06:13:59;97998.25;;;18.67;55.33
56514;BME280;62152;52.078;8.414;2023-04-01T06:23:00;98001.38;;;18.65;55.15
56514;BME280;62152;52.078;8.414;2023-04-01T06:27:22;97995.88;;;18.65;55.14
56514;BME280;62152;52.078;8.414;2023-04-01T06:31:32;98013.13;;;18.66;54.62
56514;BME280;62152;52.078;8.414;2023-04-01T06:35:37;98007.97;;;18.71;54.64
56514;BME280;62152;52.078;8.414;2023-04-01T06:39:54;98019.56;;;18.79;55.31
56514;BME280;62152;52.078;8.414;2023-04-01T06:44:16;98021.78;;;18.68;55.02
56514;BME280;62152;52.078;8.414;2023-04-01T06:48:38;98026.88;;;18.66;54.40
56514;BME280;62152;52.078;8.414;2023-04-01T06:53:07;98024.91;;;18.66;54.19
56514;BME280;62152;52.078;8.414;2023-04-01T06:57:29;98035.06;;;18.69;54.25
56514;BME280;62152;52.078;8.414;2023-04-01T07:01:37;98034.22;;;18.72;54.01
56514;BME280;62152;52.078;8.414;2023-04-01T07:05:41;98045.56;;;18.74;54.26
56514;BME280;62152;52.078;8.414;2023-04-01T07:09:43;98044.44;;;18.72;54.21
56514;BME280;62152;52.078;8.414;2023-04-01T07:14:06;98042.88;;;18.71;54.50
56514;BME280;62152;52.078;8.414;2023-04-01T07:18:17;98051.56;;;18.69;54.43
56514;BME280;62152;52.078;8.414;2023-04-01T07:22:28;98057.03;;;18.69;54.46
56514;BME280;62152;52.078;8.414;2023-04-01T07:26:41;98063.72;;;18.68;54.71
56514;BME280;62152;52.078;8.414;2023-04-01T07:30:47;98068.84;;;18.66;54.62
56514;BME280;62152;52.078;8.414;2023-04-01T07:34:54;98068.03;;;18.66;54.33
56514;BME280;62152;52.078;8.414;2023-04-01T07:38:59;98068.47;;;18.68;54.49
56514;BME280;62152;52.078;8.414;2023-04-01T07:43:41;98073.16;;;18.67;54.46
56514;BME280;62152;52.078;8.414;2023-04-01T07:48:08;98079.00;;;18.69;54.64
56514;BME280;62152;52.078;8.414;2023-04-01T07:52:21;98077.47;;;18.68;54.39
56514;BME280;62152;52.078;8.414;2023-04-01T07:56:35;98081.75;;;18.69;54.53
56514;BME280;62152;52.078;8.414;2023-04-01T08:00:46;98091.19;;;18.68;54.64
56514;BME280;62152;52.078;8.414;2023-04-01T08:05:04;98086.06;;;18.70;54.68
56514;BME280;62152;52.078;8.414;2023-04-01T08:09:17;98094.63;;;18.72;54.57
56514;BME280;62152;52.078;8.414;2023-04-01T08:13:58;98107.97;;;18.74;54.61
56514;BME280;62152;52.078;8.414;2023-04-01T08:18:17;98109.50;;;18.75;54.44
56514;BME280;62152;52.078;8.414;2023-04-01T08:22:22;98110.28;;;18.75;54.43
56514;BME280;62152;52.078;8.414;2023-04-01T08:26:32;98120.50;;;18.75;54.27
56514;BME280;62152;52.078;8.414;2023-04-01T08:30:36;98125.91;;;18.78;54.68
56514;BME280;62152;52.078;8.414;2023-04-01T08:34:44;98118.88;;;18.77;54.38
56514;BME280;62152;52.078;8.414;2023-04-01T08:39:02;98127.09;;;18.77;54.69
56514;BME280;62152;52.078;8.414;2023-04-01T08:43:10;98131.81;;;18.77;54.79
56514;BME280;62152;52.078;8.414;2023-04-01T08:47:19;98138.88;;;18.78;54.71
56514;BME280;62152;52.078;8.414;2023-04-01T08:56:18;98143.94;;;18.79;55.18
56514;BME280;62152;52.078;8.414;2023-04-01T09:00:27;98138.03;;;18.81;54.99
56514;BME280;62152;52.078;8.414;2023-04-01T09:05:12;98150.16;;;18.83;55.06
56514;BME280;62152;52.078;8.414;2023-04-01T09:09:37;98152.47;;;18.85;54.91
56514;BME280;62152;52.078;8.414;2023-04-01T09:14:07;98148.94;;;18.84;54.90
56514;BME280;62152;52.078;8.414;2023-04-01T09:18:30;98155.22;;;18.85;54.96
56514;BME280;62152;52.078;8.414;2023-04-01T09:22:41;98157.19;;;18.84;54.92
56514;BME280;62152;52.078;8.414;2023-04-01T09:26:58;98167.41;;;18.84;55.06
56514;BME280;62152;52.078;8.414;2023-04-01T09:31:07;98168.59;;;18.83;54.97
56514;BME280;62152;52.078;8.414;2023-04-01T09:35:45;98173.31;;;18.82;54.83
56514;BME280;62152;52.078;8.414;2023-04-01T09:39:50;98171.34;;;18.83;54.63
56514;BME280;62152;52.078;8.414;2023-04-01T09:44:11;98183.44;;;18.85;54.93
56514;BME280;62152;52.078;8.414;2023-04-01T09:48:37;98188.13;;;18.89;54.52
56514;BME280;62152;52.078;8.414;2023-04-01T09:53:04;98188.13;;;18.89;54.87
56514;BME280;62152;52.078;8.414;2023-04-01T10:11:06;98199.50;;;18.87;54.80
56514;BME280;62152;52.078;8.414;2023-04-01T10:15:18;98199.13;;;18.89;54.40
56514;BME280;62152;52.078;8.414;2023-04-01T10:19:54;98203.75;;;18.92;54.62
56514;BME280;62152;52.078;8.414;2023-04-01T10:42:54;98216.78;;;18.88;54.73
56514;BME280;62152;52.078;8.414;2023-04-01T10:56:55;98224.66;;;18.85;54.62
56514;BME280;62152;52.078;8.414;2023-04-01T11:01:36;98225.44;;;18.86;54.46
56514;BME280;62152;52.078;8.414;2023-04-01T11:06:27;98234.44;;;18.86;54.32
56514;BME280;62152;52.078;8.414;2023-04-01T11:10:57;98234.81;;;18.89;54.76
56514;BME280;62152;52.078;8.414;2023-04-01T11:24:24;98240.25;;;18.92;54.18
56514;BME280;62152;52.078;8.414;2023-04-01T11:29:04;98247.28;;;18.93;54.40
56514;BME280;62152;52.078;8.414;2023-04-01T11:33:26;98246.50;;;18.93;54.13
56514;BME280;62152;52.078;8.414;2023-04-01T11:37:36;98250.81;;;18.94;54.12
56514;BME280;62152;52.078;8.414;2023-04-01T11:42:11;98259.84;;;18.94;54.11
56514;BME280;62152;52.078;8.414;2023-04-01T11:46:36;98259.84;;;18.94;54.39
56514;BME280;62152;52.078;8.414;2023-04-01T11:50:46;98262.94;;;18.96;54.10
56514;BME280;62152;52.078;8.414;2023-04-01T11:54:59;98262.16;;;18.96;54.39
56514;BME280;62152;52.078;8.414;2023-04-01T11:59:27;98275.13;;;18.95;54.34
56514;BME280;62152;52.078;8.414;2023-04-01T12:03:39;98277.09;;;18.95;54.84
56514;BME280;62152;52.078;8.414;2023-04-01T12:07:50;98279.00;;;18.98;54.81
56514;BME280;62152;52.078;8.414;2023-04-01T12:12:03;98281.72;;;19.01;55.08
56514;BME280;62152;52.078;8.414;2023-04-01T12:16:15;98288.31;;;19.04;55.25
56514;BME280;62152;52.078;8.414;2023-04-01T12:20:33;98290.31;;;19.03;55.12
56514;BME280;62152;52.078;8.414;2023-04-01T12:24:42;98295.84;;;19.00;55.32
56514;BME280;62152;52.078;8.414;2023-04-01T12:28:48;98295.84;;;19.00;55.47
56514;BME280;62152;52.078;8.414;2023-04-01T12:32:57;98308.38;;;19.01;55.60
56514;BME280;62152;52.078;8.414;2023-04-01T12:37:08;98305.22;;;19.02;55.25
56514;BME280;62152;52.078;8.414;2023-04-01T12:41:20;98312.28;;;19.03;55.36
56514;BME280;62152;52.078;8.414;2023-04-01T12:45:30;98318.53;;;19.04;55.42
56514;BME280;62152;52.078;8.414;2023-04-01T12:49:36;98324.03;;;19.04;55.29
56514;BME280;62152;52.078;8.414;2023-04-01T12:53:58;98324.03;;;19.04;55.51
56514;BME280;62152;52.078;8.414;2023-04-01T12:58:32;98324.47;;;19.02;55.54
56514;BME280;62152;52.078;8.414;2023-04-01T13:02:58;98333.09;;;19.01;55.44
56514;BME280;62152;52.078;8.414;2023-04-01T13:11:45;98339.78;;;19.00;55.66
56514;BME280;62152;52.078;8.414;2023-04-01T13:15:57;98347.66;;;19.01;55.53
56514;BME280;62152;52.078;8.414;2023-04-01T13:20:04;98363.31;;;19.01;55.58
56514;BME280;62152;52.078;8.414;2023-04-01T13:24:21;98366.88;;;19.01;55.34
56514;BME280;62152;52.078;8.414;2023-04-01T13:28:25;98368.81;;;19.01;55.42
56514;BME280;62152;52.078;8.414;2023-04-01T13:32:29;98368.81;;;19.01;55.62
56514;BME280;62152;52.078;8.414;2023-04-01T13:36:34;98374.69;;;19.03;55.50
56514;BME280;62152;52.078;8.414;2023-04-01T13:40:41;98373.53;;;19.00;55.50
56514;BME280;62152;52.078;8.414;2023-04-01T13:44:49;98378.69;;;18.98;55.45
56514;BME280;62152;52.078;8.414;2023-04-01T13:49:02;98376.34;;;18.97;55.49
56514;BME280;62152;52.078;8.414;2023-04-01T13:53:44;98386.16;;;18.98;55.49
56514;BME280;62152;52.078;8.414;2023-04-01T14:02:18;98389.75;;;18.95;55.44
56514;BME280;62152;52.078;8.414;2023-04-01T14:06:27;98405.44;;;18.94;55.50
56514;BME280;62152;52.078;8.414;2023-04-01T14:10:36;98408.97;;;18.95;55.37
56514;BME280;62152;52.078;8.414;2023-04-01T14:14:48;98414.47;;;18.95;55.32
56514;BME280;62152;52.078;8.414;2023-04-01T14:23:33;98420.31;;;18.97;55.45
56514;BME280;62152;52.078;8.414;2023-04-01T14:27:38;98428.56;;;18.97;55.50
56514;BME280;62152;52.078;8.414;2023-04-01T14:31:55;98434.47;;;18.95;55.46
56514;BME280;62152;52.078;8.414;2023-04-01T14:36:18;98434.47;;;18.95;55.63
56514;BME280;62152;52.078;8.414;2023-04-01T14:45:02;98448.97;;;18.96;55.33
56514;BME280;62152;52.078;8.414;2023-04-01T14:49:22;98448.19;;;18.95;55.12
56514;BME280;62152;52.078;8.414;2023-04-01T14:53:26;98458.41;;;18.95;55.72
56514;BME280;62152;52.078;8.414;2023-04-01T14:57:27;98459.59;;;18.94;55.57
56514;BME280;62152;52.078;8.414;2023-04-01T15:01:32;98462.34;;;18.94;55.51
56514;BME280;62152;52.078;8.414;2023-04-01T15:05:45;98473.72;;;18.96;55.56
56514;BME280;62152;52.078;8.414;2023-04-01T15:09:50;98470.19;;;18.95;55.47
56514;BME280;62152;52.078;8.414;2023-04-01T15:18:25;98485.88;;;18.95;55.22
56514;BME280;62152;52.078;8.414;2023-04-01T15:22:32;98503.53;;;18.94;55.40
56514;BME280;62152;52.078;8.414;2023-04-01T15:26:51;98505.91;;;18.95;55.17
56514;BME280;62152;52.078;8.414;2023-04-01T15:31:09;98509.84;;;18.94;55.11
56514;BME280;62152;52.078;8.414;2023-04-01T15:35:19;98522.78;;;18.94;55.14
56514;BME280;62152;52.078;8.414;2023-04-01T15:39:24;98529.47;;;18.93;55.26
56514;BME280;62152;52.078;8.414;2023-04-01T15:43:31;98530.66;;;18.92;55.19
56514;BME280;62152;52.078;8.414;2023-04-01T15:47:37;98541.66;;;18.92;55.30
56514;BME280;62152;52.078;8.414;2023-04-01T15:51:41;98549.88;;;18.92;55.59
56514;BME280;62152;52.078;8.414;2023-04-01T15:55:55;98553.41;;;18.92;55.41
56514;BME280;62152;52.078;8.414;2023-04-01T16:00:02;98562.44;;;18.93;55.46
56514;BME280;62152;52.078;8.414;2023-04-01T16:04:32;98560.09;;;18.91;55.08
56514;BME280;62152;52.078;8.414;2023-04-01T16:08:56;98573.06;;;18.91;55.54
56514;BME280;62152;52.078;8.414;2023-04-01T16:13:22;98578.97;;;18.89;55.29
56514;BME280;62152;52.078;8.414;2023-04-01T16:17:35;98591.16;;;18.88;55.32
56514;BME280;62152;52.078;8.414;2023-04-01T16:21:38;98595.88;;;18.88;55.50
56514;BME280;62152;52.078;8.414;2023-04-01T16:25:45;98592.31;;;18.87;55.28
56514;BME280;62152;52.078;8.414;2023-04-01T16:29:55;98604.88;;;18.88;55.33
56514;BME280;62152;52.078;8.414;2023-04-01T16:34:01;98612.34;;;18.88;55.31
56514;BME280;62152;52.078;8.414;2023-04-01T16:38:11;98622.53;;;18.87;55.57
56514;BME280;62152;52.078;8.414;2023-04-01T16:42:25;98635.50;;;18.86;55.35
56514;BME280;62152;52.078;8.414;2023-04-01T16:46:36;98639.44;;;18.85;55.24
56514;BME280;62152;52.078;8.414;2023-04-01T16:50:43;98651.97;;;18.86;55.43
56514;BME280;62152;52.078;8.414;2023-04-01T16:54:51;98659.44;;;18.86;55.19
56514;BME280;62152;52.078;8.414;2023-04-01T16:58:57;98675.56;;;18.84;55.26
56514;BME280;62152;52.078;8.414;2023-04-01T17:03:08;98682.59;;;18.85;55.55
56514;BME280;62152;52.078;8.414;2023-04-01T17:07:17;98683.00;;;18.83;55.38
56514;BME280;62152;52.078;8.414;2023-04-01T17:11:25;98695.97;;;18.83;55.53
56514;BME280;62152;52.078;8.414;2023-04-01T17:15:32;98707.72;;;18.83;55.26
56514;BME280;62152;52.078;8.414;2023-04-01T17:24:45;98723.03;;;18.84;55.40
56514;BME280;62152;52.078;8.414;2023-04-01T17:28:57;98737.88;;;18.91;55.61
56514;BME280;62152;52.078;8.414;2023-04-01T17:33:12;98750.03;;;18.93;55.66
56514;BME280;62152;52.078;8.414;2023-04-01T17:37:40;98764.16;;;18.92;55.99
56514;BME280;62152;52.078;8.414;2023-04-01T17:41:52;98772.41;;;18.92;56.16
56514;BME280;62152;52.078;8.414;2023-04-01T17:45:57;98788.13;;;18.91;56.37
56514;BME280;62152;52.078;8.414;2023-04-01T17:50:07;98795.56;;;18.91;56.64
56514;BME280;62152;52.078;8.414;2023-04-01T17:54:20;98806.56;;;18.91;56.46
56514;BME280;62152;52.078;8.414;2023-04-01T17:58:31;98820.31;;;18.91;56.56
56514;BME280;62152;52.078;8.414;2023-04-01T18:02:41;98827.00;;;18.90;56.26
56514;BME280;62152;52.078;8.414;2023-04-01T18:06:51;98836.78;;;18.91;56.70
56514;BME280;62152;52.078;8.414;2023-04-01T18:11:09;98862.28;;;18.91;56.82
56514;BME280;62152;52.078;8.414;2023-04-01T18:15:21;98862.72;;;18.90;56.92
56514;BME280;62152;52.078;8.414;2023-04-01T18:19:35;98877.22;;;18.90;56.84
56514;BME280;62152;52.078;8.414;2023-04-01T18:23:47;98881.94;;;18.90;56.85
56514;BME280;62152;52.078;8.414;2023-04-01T18:28:11;98905.88;;;18.89;57.14
56514;BME280;62152;52.078;8.414;2023-04-01T18:32:28;98917.66;;;18.90;57.07
56514;BME280;62152;52.078;8.414;2023-04-01T18:36:37;98917.66;;;18.90;57.03
56514;BME280;62152;52.078;8.414;2023-04-01T18:40:41;98932.56;;;18.89;56.64
56514;BME280;62152;52.078;8.414;2023-04-01T18:44:44;98938.06;;;18.89;56.57
56514;BME280;62152;52.078;8.414;2023-04-01T18:48:50;98955.34;;;18.89;57.22
56514;BME280;62152;52.078;8.414;2023-04-01T18:52:51;98967.06;;;18.93;56.80
56514;BME280;62152;52.078;8.414;2023-04-01T18:57:00;98972.97;;;18.95;56.96
56514;BME280;62152;52.078;8.414;2023-04-01T19:01:10;98983.56;;;18.97;57.26
56514;BME280;62152;52.078;8.414;2023-04-01T19:05:14;98990.59;;;18.98;57.08
56514;BME280;62152;52.078;8.414;2023-04-01T19:09:21;98998.44;;;18.99;57.10
56514;BME280;62152;52.078;8.414;2023-04-01T19:13:25;99010.22;;;19.00;57.23
56514;BME280;62152;52.078;8.414;2023-04-01T19:17:38;99025.91;;;18.99;57.22
56514;BME280;62152;52.078;8.414;2023-04-01T19:21:54;99033.75;;;19.04;56.91
56514;BME280;62152;52.078;8.414;2023-04-01T19:25:56;99047.09;;;19.06;56.55
56514;BME280;62152;52.078;8.414;2023-04-01T19:30:03;99054.56;;;19.05;56.72
56514;BME280;62152;52.078;8.414;2023-04-01T19:34:21;99058.06;;;19.06;56.44
56514;BME280;62152;52.078;8.414;2023-04-01T19:38:28;99078.88;;;19.07;57.09
56514;BME280;62152;52.078;8.414;2023-04-01T19:42:31;99076.13;;;19.07;56.75
56514;BME280;62152;52.078;8.414;2023-04-01T19:46:40;99083.22;;;19.08;56.89
56514;BME280;62152;52.078;8.414;2023-04-01T19:50:45;99095.78;;;19.09;56.87
56514;BME280;62152;52.078;8.414;2023-04-01T19:54:53;99104.41;;;19.11;56.75
56514;BME280;62152;52.078;8.414;2023-04-01T19:59:00;99117.34;;;19.10;56.62
56514;BME280;62152;52.078;8.414;2023-04-01T20:03:14;99126.38;;;19.07;56.95
56514;BME280;62152;52.078;8.414;2023-04-01T20:07:23;99142.91;;;19.04;56.78
56514;BME280;62152;52.078;8.414;2023-04-01T20:11:34;99141.34;;;19.03;56.91
56514;BME280;62152;52.078;8.414;2023-04-01T20:15:44;99149.97;;;19.01;56.94
56514;BME280;62152;52.078;8.414;2023-04-01T20:19:46;99159.00;;;18.98;56.41
56514;BME280;62152;52.078;8.414;2023-04-01T20:23:55;99181.38;;;18.97;56.94
56514;BME280;62152;52.078;8.414;2023-04-01T20:27:58;99184.53;;;18.95;56.92
56514;BME280;62152;52.078;8.414;2023-04-01T20:32:05;99198.66;;;18.94;56.64
56514;BME280;62152;52.078;8.414;2023-04-01T20:36:16;99220.63;;;18.94;56.73
56514;BME280;62152;52.078;8.414;2023-04-01T20:40:26;99219.06;;;18.93;56.73
56514;BME280;62152;52.078;8.414;2023-04-01T20:44:34;99239.47;;;18.92;56.50
56514;BME280;62152;52.078;8.414;2023-04-01T20:49:01;99237.91;;;18.91;56.77
56514;BME280;62152;52.078;8.414;2023-04-01T20:53:15;99245.00;;;18.88;56.55
56514;BME280;62152;52.078;8.414;2023-04-01T20:57:20;99259.13;;;18.90;56.77
56514;BME280;62152;52.078;8.414;2023-04-01T21:01:28;99267.34;;;18.90;56.52
56514;BME280;62152;52.078;8.414;2023-04-01T21:05:54;99273.25;;;18.89;56.63
56514;BME280;62152;52.078;8.414;2023-04-01T21:10:28;99283.84;;;18.86;56.57
56514;BME280;62152;52.078;8.414;2023-04-01T21:18:52;99296.78;;;18.86;56.43
56514;BME280;62152;52.078;8.414;2023-04-01T21:23:04;99307.78;;;18.86;56.12
56514;BME280;62152;52.078;8.414;2023-04-01T21:27:12;99316.81;;;18.86;56.14
56514;BME280;62152;52.078;8.414;2023-04-01T21:31:25;99328.97;;;18.85;56.06
56514;BME280;62152;52.078;8.414;2023-04-01T21:35:41;99328.19;;;18.85;56.34
56514;BME280;62152;52.078;8.414;2023-04-01T21:39:52;99344.69;;;18.85;56.21
56514;BME280;62152;52.078;8.414;2023-04-01T21:44:03;99347.03;;;18.83;56.28
56514;BME280;62152;52.078;8.414;2023-04-01T21:48:41;99364.31;;;18.83;56.15
56514;BME280;62152;52.078;8.414;2023-04-01T21:53:01;99369.00;;;18.83;56.21
56514;BME280;62152;52.078;8.414;2023-04-01T21:57:29;99380.78;;;18.83;56.29
56514;BME280;62152;52.078;8.414;2023-04-01T22:01:58;99387.47;;;18.82;55.84
56514;BME280;62152;52.078;8.414;2023-04-01T22:06:16;99392.19;;;18.82;55.93
56514;BME280;62152;52.078;8.414;2023-04-01T22:10:29;99405.91;;;18.82;55.82
56514;BME280;62152;52.078;8.414;2023-04-01T22:14:37;99418.88;;;18.81;56.02
56514;BME280;62152;52.078;8.414;2023-04-01T22:18:41;99416.13;;;18.81;55.90
56514;BME280;62152;52.078;8.414;2023-04-01T22:22:52;99419.22;;;18.80;55.91
56514;BME280;62152;52.078;8.414;2023-04-01T22:27:03;99436.53;;;18.80;55.84
56514;BME280;62152;52.078;8.414;2023-04-01T22:31:07;99446.69;;;18.80;44.39
56514;BME280;62152;52.078;8.414;2023-04-01T22:35:18;99456.13;;;18.79;55.79
56514;BME280;62152;52.078;8.414;2023-04-01T22:39:33;99454.94;;;18.80;55.72
56514;BME280;62152;52.078;8.414;2023-04-01T22:43:50;99461.63;;;18.79;55.92
56514;BME280;62152;52.078;8.414;2023-04-01T22:47:52;99477.31;;;18.78;55.77
56514;BME280;62152;52.078;8.414;2023-04-01T22:51:59;99482.03;;;18.78;55.57
56514;BME280;62152;52.078;8.414;2023-04-01T22:56:05;99485.56;;;18.78;55.69
56514;BME280;62152;52.078;8.414;2023-04-01T23:00:14;99493.03;;;18.78;55.79
56514;BME280;62152;52.078;8.414;2023-04-01T23:04:21;99499.28;;;18.78;55.58
56514;BME280;62152;52.078;8.414;2023-04-01T23:08:33;99513.44;;;18.77;55.85
56514;BME280;62152;52.078;8.414;2023-04-01T23:12:43;99518.13;;;18.76;55.60
56514;BME280;62152;52.078;8.414;2023-04-01T23:16:49;99523.63;;;18.76;55.73
56514;BME280;62152;52.078;8.414;2023-04-01T23:21:00;99535.41;;;18.77;55.46
56514;BME280;62152;52.078;8.414;2023-04-01T23:25:15;99540.13;;;18.76;55.72
56514;BME280;62152;52.078;8.414;2023-04-01T23:29:17;99561.31;;;18.76;55.56
56514;BME280;62152;52.078;8.414;2023-04-01T23:33:21;99557.78;;;18.75;55.46
56514;BME280;62152;52.078;8.414;2023-04-01T23:37:26;99572.28;;;18.76;55.43